sensor_id;sensor_type;location;lat;lon;timestamp;temperature;humidity
55121;DHT22;41019;48.512;9.036;2023-06-01T00:01:29;14.00;93.00
55121;DHT22;41019;48.512;9.036;2023-06-01T00:04:00;13.90;93.00
55121;DHT22;41019;48.512;9.036;2023-06-01T00:06:26;13.90;93.20
55121;DHT22;41019;48.512;9.036;2023-06-01T00:08:54;13.90;93.10
55121;DHT22;41019;48.512;9.036;2023-06-01T00:11:21;13.90;93.30
55121;DHT22;41019;48.512;9.036;2023-06-01T00:13:48;13.80;93.30
55121;DHT22;41019;48.512;9.036;2023-06-01T00:16:14;13.80;93.30
55121;DHT22;41019;48.512;9.036;2023-06-01T00:18:41;13.70;93.60
55121;DHT22;41019;48.512;9.036;2023-06-01T00:21:07;13.70;93.30
55121;DHT22;41019;48.512;9.036;2023-06-01T00:23:33;13.70;92.90
55121;DHT22;41019;48.512;9.036;2023-06-01T00:26:00;13.70;93.10
55121;DHT22;41019;48.512;9.036;2023-06-01T00:28:26;13.60;93.00
55121;DHT22;41019;48.512;9.036;2023-06-01T00:30:53;13.60;93.20
55121;DHT22;41019;48.512;9.036;2023-06-01T00:33:20;13.60;94.00
55121;DHT22;41019;48.512;9.036;2023-06-01T00:35:46;13.50;94.20
55121;DHT22;41019;48.512;9.036;2023-06-01T00:38:13;13.50;93.90
55121;DHT22;41019;48.512;9.036;2023-06-01T00:40:38;13.50;94.30
55121;DHT22;41019;48.512;9.036;2023-06-01T00:43:04;13.40;94.20
55121;DHT22;41019;48.512;9.036;2023-06-01T00:45:30;13.40;94.60
55121;DHT22;41019;48.512;9.036;2023-06-01T00:47:57;13.40;94.40
55121;DHT22;41019;48.512;9.036;2023-06-01T00:50:23;13.30;94.60
55121;DHT22;41019;48.512;9.036;2023-06-01T00:52:51;13.20;94.40
55121;DHT22;41019;48.512;9.036;2023-06-01T00:55:20;13.20;94.50
55121;DHT22;41019;48.512;9.036;2023-06-01T00:57:49;13.10;94.50
55121;DHT22;41019;48.512;9.036;2023-06-01T01:00:17;13.10;94.50
55121;DHT22;41019;48.512;9.036;2023-06-01T01:02:42;13.00;94.70
55121;DHT22;41019;48.512;9.036;2023-06-01T01:05:15;13.00;94.80
55121;DHT22;41019;48.512;9.036;2023-06-01T01:08:24;13.00;94.70
55121;DHT22;41019;48.512;9.036;2023-06-01T01:10:54;12.90;95.00
55121;DHT22;41019;48.512;9.036;2023-06-01T01:13:52;12.90;95.10
55121;DHT22;41019;48.512;9.036;2023-06-01T01:16:45;12.80;95.20
55121;DHT22;41019;48.512;9.036;2023-06-01T01:25:10;12.70;94.70
55121;DHT22;41019;48.512;9.036;2023-06-01T01:30:31;12.60;94.90
55121;DHT22;41019;48.512;9.036;2023-06-01T01:33:02;12.60;95.00
55121;DHT22;41019;48.512;9.036;2023-06-01T01:35:29;12.60;95.30
55121;DHT22;41019;48.512;9.036;2023-06-01T01:37:56;12.50;95.20
55121;DHT22;41019;48.512;9.036;2023-06-01T01:40:23;12.50;95.50
55121;DHT22;41019;48.512;9.036;2023-06-01T01:42:50;12.50;95.60
55121;DHT22;41019;48.512;9.036;2023-06-01T01:45:18;12.50;95.60
55121;DHT22;41019;48.512;9.036;2023-06-01T01:47:58;12.40;95.80
55121;DHT22;41019;48.512;9.036;2023-06-01T01:50:31;12.40;96.00
55121;DHT22;41019;48.512;9.036;2023-06-01T01:53:01;12.40;95.90
55121;DHT22;41019;48.512;9.036;2023-06-01T01:55:30;12.30;95.80
55121;DHT22;41019;48.512;9.036;2023-06-01T01:57:59;12.30;95.60
55121;DHT22;41019;48.512;9.036;2023-06-01T02:00:27;12.30;95.30
55121;DHT22;41019;48.512;9.036;2023-06-01T02:02:53;12.20;95.70
55121;DHT22;41019;48.512;9.036;2023-06-01T02:05:20;12.20;95.70
55121;DHT22;41019;48.512;9.036;2023-06-01T02:07:45;12.10;95.60
55121;DHT22;41019;48.512;9.036;2023-06-01T02:10:11;12.10;95.80
55121;DHT22;41019;48.512;9.036;2023-06-01T02:12:39;12.00;95.80
55121;DHT22;41019;48.512;9.036;2023-06-01T02:15:05;12.00;95.90
55121;DHT22;41019;48.512;9.036;2023-06-01T02:17:31;12.00;96.00
55121;DHT22;41019;48.512;9.036;2023-06-01T02:19:59;12.00;95.90
55121;DHT22;41019;48.512;9.036;2023-06-01T02:22:25;12.00;95.90
55121;DHT22;41019;48.512;9.036;2023-06-01T02:24:51;12.00;95.80
55121;DHT22;41019;48.512;9.036;2023-06-01T02:27:17;11.90;95.90
55121;DHT22;41019;48.512;9.036;2023-06-01T02:29:43;11.90;95.80
55121;DHT22;41019;48.512;9.036;2023-06-01T02:32:09;12.00;95.90
55121;DHT22;41019;48.512;9.036;2023-06-01T02:34:35;11.90;95.80
55121;DHT22;41019;48.512;9.036;2023-06-01T02:37:03;11.90;96.00
55121;DHT22;41019;48.512;9.036;2023-06-01T02:39:30;11.90;96.10
55121;DHT22;41019;48.512;9.036;2023-06-01T02:41:56;11.90;96.30
55121;DHT22;41019;48.512;9.036;2023-06-01T02:44:21;11.90;96.40
55121;DHT22;41019;48.512;9.036;2023-06-01T02:46:47;11.80;96.30
55121;DHT22;41019;48.512;9.036;2023-06-01T02:49:13;11.80;96.50
55121;DHT22;41019;48.512;9.036;2023-06-01T02:51:41;11.80;96.40
55121;DHT22;41019;48.512;9.036;2023-06-01T02:54:16;11.70;96.20
55121;DHT22;41019;48.512;9.036;2023-06-01T02:56:42;11.70;96.20
55121;DHT22;41019;48.512;9.036;2023-06-01T02:59:31;11.80;96.20
55121;DHT22;41019;48.512;9.036;2023-06-01T03:02:00;11.70;96.30
55121;DHT22;41019;48.512;9.036;2023-06-01T03:04:27;11.70;96.50
55121;DHT22;41019;48.512;9.036;2023-06-01T03:06:55;11.70;96.40
55121;DHT22;41019;48.512;9.036;2023-06-01T03:09:22;11.70;96.60
55121;DHT22;41019;48.512;9.036;2023-06-01T03:12:03;11.70;96.80
55121;DHT22;41019;48.512;9.036;2023-06-01T03:14:30;11.60;97.20
55121;DHT22;41019;48.512;9.036;2023-06-01T03:16:56;11.60;96.90
55121;DHT22;41019;48.512;9.036;2023-06-01T03:19:22;11.60;96.80
55121;DHT22;41019;48.512;9.036;2023-06-01T03:21:52;11.60;96.70
55121;DHT22;41019;48.512;9.036;2023-06-01T03:24:20;11.60;96.80
55121;DHT22;41019;48.512;9.036;2023-06-01T03:26:49;11.60;96.90
55121;DHT22;41019;48.512;9.036;2023-06-01T03:29:16;11.60;96.80
55121;DHT22;41019;48.512;9.036;2023-06-01T03:31:43;11.60;96.80
55121;DHT22;41019;48.512;9.036;2023-06-01T03:34:09;11.60;96.70
55121;DHT22;41019;48.512;9.036;2023-06-01T03:36:35;11.60;96.70
55121;DHT22;41019;48.512;9.036;2023-06-01T03:39:02;11.50;96.70
55121;DHT22;41019;48.512;9.036;2023-06-01T03:41:35;11.50;96.90
55121;DHT22;41019;48.512;9.036;2023-06-01T03:44:03;11.50;96.70
55121;DHT22;41019;48.512;9.036;2023-06-01T03:46:29;11.50;96.80
55121;DHT22;41019;48.512;9.036;2023-06-01T03:48:55;11.50;96.70
55121;DHT22;41019;48.512;9.036;2023-06-01T03:51:21;11.50;96.80
55121;DHT22;41019;48.512;9.036;2023-06-01T03:53:47;11.50;97.10
55121;DHT22;41019;48.512;9.036;2023-06-01T03:56:14;11.50;97.40
55121;DHT22;41019;48.512;9.036;2023-06-01T03:58:41;11.40;97.30
55121;DHT22;41019;48.512;9.036;2023-06-01T04:01:08;11.40;97.30
55121;DHT22;41019;48.512;9.036;2023-06-01T04:03:36;11.40;97.30
55121;DHT22;41019;48.512;9.036;2023-06-01T04:06:02;11.40;97.40
55121;DHT22;41019;48.512;9.036;2023-06-01T04:08:29;11.40;97.30
55121;DHT22;41019;48.512;9.036;2023-06-01T04:10:56;11.40;97.20
55121;DHT22;41019;48.512;9.036;2023-06-01T04:13:22;11.40;97.50
55121;DHT22;41019;48.512;9.036;2023-06-01T04:15:48;11.40;97.40
55121;DHT22;41019;48.512;9.036;2023-06-01T04:18:17;11.40;97.50
55121;DHT22;41019;48.512;9.036;2023-06-01T04:20:52;11.30;97.10
55121;DHT22;41019;48.512;9.036;2023-06-01T04:23:19;11.30;97.10
55121;DHT22;41019;48.512;9.036;2023-06-01T04:25:45;11.30;97.00
55121;DHT22;41019;48.512;9.036;2023-06-01T04:28:12;11.30;96.80
55121;DHT22;41019;48.512;9.036;2023-06-01T04:30:38;11.30;97.10
55121;DHT22;41019;48.512;9.036;2023-06-01T04:33:04;11.40;97.20
55121;DHT22;41019;48.512;9.036;2023-06-01T04:35:33;11.40;97.30
55121;DHT22;41019;48.512;9.036;2023-06-01T04:38:01;11.50;97.40
55121;DHT22;41019;48.512;9.036;2023-06-01T04:40:28;11.50;97.50
55121;DHT22;41019;48.512;9.036;2023-06-01T04:42:54;11.50;97.40
55121;DHT22;41019;48.512;9.036;2023-06-01T04:45:24;11.60;97.40
55121;DHT22;41019;48.512;9.036;2023-06-01T04:47:51;11.60;97.60
55121;DHT22;41019;48.512;9.036;2023-06-01T04:50:20;11.70;97.50
55121;DHT22;41019;48.512;9.036;2023-06-01T04:52:47;11.70;97.30
55121;DHT22;41019;48.512;9.036;2023-06-01T04:55:14;11.70;97.00
55121;DHT22;41019;48.512;9.036;2023-06-01T04:57:41;11.70;96.90
55121;DHT22;41019;48.512;9.036;2023-06-01T05:00:14;11.80;97.00
55121;DHT22;41019;48.512;9.036;2023-06-01T05:02:41;11.80;97.00
55121;DHT22;41019;48.512;9.036;2023-06-01T05:05:11;11.80;96.90
55121;DHT22;41019;48.512;9.036;2023-06-01T05:07:37;11.90;97.00
55121;DHT22;41019;48.512;9.036;2023-06-01T05:10:09;12.00;97.00
55121;DHT22;41019;48.512;9.036;2023-06-01T05:12:42;12.00;96.90
55121;DHT22;41019;48.512;9.036;2023-06-01T05:15:09;12.10;96.90
55121;DHT22;41019;48.512;9.036;2023-06-01T05:17:36;12.10;96.50
55121;DHT22;41019;48.512;9.036;2023-06-01T05:20:08;12.20;96.50
55121;DHT22;41019;48.512;9.036;2023-06-01T05:22:35;12.30;96.20
55121;DHT22;41019;48.512;9.036;2023-06-01T05:25:01;12.40;96.30
55121;DHT22;41019;48.512;9.036;2023-06-01T05:27:28;12.40;96.00
55121;DHT22;41019;48.512;9.036;2023-06-01T05:29:54;12.50;95.90
55121;DHT22;41019;48.512;9.036;2023-06-01T05:32:21;12.60;95.50
55121;DHT22;41019;48.512;9.036;2023-06-01T05:34:47;12.70;95.40
55121;DHT22;41019;48.512;9.036;2023-06-01T05:37:14;12.80;95.40
55121;DHT22;41019;48.512;9.036;2023-06-01T05:39:40;12.80;95.30
55121;DHT22;41019;48.512;9.036;2023-06-01T05:42:07;12.90;95.30
55121;DHT22;41019;48.512;9.036;2023-06-01T05:44:37;13.00;95.20
55121;DHT22;41019;48.512;9.036;2023-06-01T05:47:03;13.10;95.10
55121;DHT22;41019;48.512;9.036;2023-06-01T05:49:29;13.10;94.90
55121;DHT22;41019;48.512;9.036;2023-06-01T05:51:57;13.20;94.80
55121;DHT22;41019;48.512;9.036;2023-06-01T05:54:24;13.30;94.50
55121;DHT22;41019;48.512;9.036;2023-06-01T05:56:50;13.50;94.50
55121;DHT22;41019;48.512;9.036;2023-06-01T05:59:16;13.50;94.30
55121;DHT22;41019;48.512;9.036;2023-06-01T06:01:42;13.70;94.30
55121;DHT22;41019;48.512;9.036;2023-06-01T06:04:10;13.80;93.90
55121;DHT22;41019;48.512;9.036;2023-06-01T06:06:36;13.90;93.80
55121;DHT22;41019;48.512;9.036;2023-06-01T06:09:03;14.00;93.70
55121;DHT22;41019;48.512;9.036;2023-06-01T06:11:30;14.10;93.50
55121;DHT22;41019;48.512;9.036;2023-06-01T06:13:56;14.10;93.10
55121;DHT22;41019;48.512;9.036;2023-06-01T06:16:22;14.20;92.60
55121;DHT22;41019;48.512;9.036;2023-06-01T06:18:48;14.30;92.70
55121;DHT22;41019;48.512;9.036;2023-06-01T06:21:14;14.40;92.50
55121;DHT22;41019;48.512;9.036;2023-06-01T06:23:40;14.50;92.40
55121;DHT22;41019;48.512;9.036;2023-06-01T06:26:06;14.60;92.40
55121;DHT22;41019;48.512;9.036;2023-06-01T06:28:32;14.80;92.10
55121;DHT22;41019;48.512;9.036;2023-06-01T06:30:59;14.90;91.90
55121;DHT22;41019;48.512;9.036;2023-06-01T06:33:24;15.10;91.80
55121;DHT22;41019;48.512;9.036;2023-06-01T06:35:50;15.30;92.00
55121;DHT22;41019;48.512;9.036;2023-06-01T06:38:16;15.50;91.60
55121;DHT22;41019;48.512;9.036;2023-06-01T06:40:43;15.70;91.20
55121;DHT22;41019;48.512;9.036;2023-06-01T06:43:08;16.00;90.60
55121;DHT22;41019;48.512;9.036;2023-06-01T06:45:35;16.10;90.70
55121;DHT22;41019;48.512;9.036;2023-06-01T06:48:00;16.30;90.20
55121;DHT22;41019;48.512;9.036;2023-06-01T06:50:27;16.50;89.30
55121;DHT22;41019;48.512;9.036;2023-06-01T06:52:53;16.70;88.30
55121;DHT22;41019;48.512;9.036;2023-06-01T06:55:19;16.90;87.30
55121;DHT22;41019;48.512;9.036;2023-06-01T06:57:46;17.10;86.70
55121;DHT22;41019;48.512;9.036;2023-06-01T07:00:15;17.20;85.70
55121;DHT22;41019;48.512;9.036;2023-06-01T07:02:41;17.50;86.20
55121;DHT22;41019;48.512;9.036;2023-06-01T07:05:08;17.60;84.70
55121;DHT22;41019;48.512;9.036;2023-06-01T07:07:34;17.80;83.10
55121;DHT22;41019;48.512;9.036;2023-06-01T07:10:00;18.00;82.70
55121;DHT22;41019;48.512;9.036;2023-06-01T07:12:26;18.20;81.80
55121;DHT22;41019;48.512;9.036;2023-06-01T07:14:51;18.40;81.10
55121;DHT22;41019;48.512;9.036;2023-06-01T07:17:17;18.70;79.30
55121;DHT22;41019;48.512;9.036;2023-06-01T07:19:43;18.90;79.20
55121;DHT22;41019;48.512;9.036;2023-06-01T07:22:09;19.00;78.80
55121;DHT22;41019;48.512;9.036;2023-06-01T07:24:34;19.30;78.00
55121;DHT22;41019;48.512;9.036;2023-06-01T07:27:01;19.50;78.70
55121;DHT22;41019;48.512;9.036;2023-06-01T07:29:26;19.70;77.30
55121;DHT22;41019;48.512;9.036;2023-06-01T07:31:53;20.00;77.50
55121;DHT22;41019;48.512;9.036;2023-06-01T07:34:19;20.20;75.60
55121;DHT22;41019;48.512;9.036;2023-06-01T07:36:46;20.40;75.70
55121;DHT22;41019;48.512;9.036;2023-06-01T07:39:13;20.60;74.90
55121;DHT22;41019;48.512;9.036;2023-06-01T07:41:39;20.80;73.90
55121;DHT22;41019;48.512;9.036;2023-06-01T07:44:08;21.00;72.30
55121;DHT22;41019;48.512;9.036;2023-06-01T07:46:34;21.10;72.70
55121;DHT22;41019;48.512;9.036;2023-06-01T07:48:59;21.40;71.60
55121;DHT22;41019;48.512;9.036;2023-06-01T07:51:26;21.50;71.00
55121;DHT22;41019;48.512;9.036;2023-06-01T07:53:52;21.80;70.50
55121;DHT22;41019;48.512;9.036;2023-06-01T07:56:18;21.90;70.30
55121;DHT22;41019;48.512;9.036;2023-06-01T07:58:43;22.20;69.90
55121;DHT22;41019;48.512;9.036;2023-06-01T08:01:09;22.40;68.60
55121;DHT22;41019;48.512;9.036;2023-06-01T08:03:36;22.60;68.40
55121;DHT22;41019;48.512;9.036;2023-06-01T08:06:02;22.80;68.60
55121;DHT22;41019;48.512;9.036;2023-06-01T08:08:31;23.00;67.40
55121;DHT22;41019;48.512;9.036;2023-06-01T08:10:57;23.20;66.70
55121;DHT22;41019;48.512;9.036;2023-06-01T08:13:23;23.40;65.60
55121;DHT22;41019;48.512;9.036;2023-06-01T08:15:52;23.60;63.70
55121;DHT22;41019;48.512;9.036;2023-06-01T08:18:19;23.80;63.10
55121;DHT22;41019;48.512;9.036;2023-06-01T08:20:48;24.00;63.20
55121;DHT22;41019;48.512;9.036;2023-06-01T08:23:14;24.20;64.10
55121;DHT22;41019;48.512;9.036;2023-06-01T08:25:45;24.50;61.30
55121;DHT22;41019;48.512;9.036;2023-06-01T08:28:11;24.60;62.50
55121;DHT22;41019;48.512;9.036;2023-06-01T08:30:37;24.70;63.90
55121;DHT22;41019;48.512;9.036;2023-06-01T08:33:03;24.70;62.30
55121;DHT22;41019;48.512;9.036;2023-06-01T08:35:29;24.90;62.40
55121;DHT22;41019;48.512;9.036;2023-06-01T08:38:00;25.10;61.40
55121;DHT22;41019;48.512;9.036;2023-06-01T08:40:26;25.20;59.50
55121;DHT22;41019;48.512;9.036;2023-06-01T08:43:12;25.40;58.20
55121;DHT22;41019;48.512;9.036;2023-06-01T08:45:41;25.70;58.80
55121;DHT22;41019;48.512;9.036;2023-06-01T08:48:08;25.90;60.20
55121;DHT22;41019;48.512;9.036;2023-06-01T08:50:38;26.00;58.60
55121;DHT22;41019;48.512;9.036;2023-06-01T08:53:04;26.20;59.50
55121;DHT22;41019;48.512;9.036;2023-06-01T08:55:31;26.40;59.80
55121;DHT22;41019;48.512;9.036;2023-06-01T08:57:56;26.60;59.80
55121;DHT22;41019;48.512;9.036;2023-06-01T09:00:22;26.80;57.40
55121;DHT22;41019;48.512;9.036;2023-06-01T09:02:49;26.80;56.40
55121;DHT22;41019;48.512;9.036;2023-06-01T09:05:15;27.00;55.70
55121;DHT22;41019;48.512;9.036;2023-06-01T09:07:43;27.30;54.80
55121;DHT22;41019;48.512;9.036;2023-06-01T09:10:09;27.40;56.40
55121;DHT22;41019;48.512;9.036;2023-06-01T09:12:36;27.50;54.70
55121;DHT22;41019;48.512;9.036;2023-06-01T09:15:17;27.70;54.50
55121;DHT22;41019;48.512;9.036;2023-06-01T09:17:44;28.00;55.00
55121;DHT22;41019;48.512;9.036;2023-06-01T09:20:25;28.10;54.50
55121;DHT22;41019;48.512;9.036;2023-06-01T09:22:51;28.10;54.40
55121;DHT22;41019;48.512;9.036;2023-06-01T09:25:24;28.20;53.60
55121;DHT22;41019;48.512;9.036;2023-06-01T09:27:53;28.10;50.80
55121;DHT22;41019;48.512;9.036;2023-06-01T09:30:22;28.30;52.00
55121;DHT22;41019;48.512;9.036;2023-06-01T09:32:50;28.30;50.30
55121;DHT22;41019;48.512;9.036;2023-06-01T09:35:40;28.30;51.20
55121;DHT22;41019;48.512;9.036;2023-06-01T09:38:07;28.40;50.50
55121;DHT22;41019;48.512;9.036;2023-06-01T09:40:34;28.60;50.00
55121;DHT22;41019;48.512;9.036;2023-06-01T09:43:00;28.80;50.30
55121;DHT22;41019;48.512;9.036;2023-06-01T09:45:30;28.80;48.30
55121;DHT22;41019;48.512;9.036;2023-06-01T09:48:16;29.10;49.70
55121;DHT22;41019;48.512;9.036;2023-06-01T09:50:43;29.40;50.40
55121;DHT22;41019;48.512;9.036;2023-06-01T09:53:09;29.50;50.20
55121;DHT22;41019;48.512;9.036;2023-06-01T09:55:35;29.40;47.00
55121;DHT22;41019;48.512;9.036;2023-06-01T09:58:20;29.20;46.50
55121;DHT22;41019;48.512;9.036;2023-06-01T10:00:48;29.40;46.20
55121;DHT22;41019;48.512;9.036;2023-06-01T10:05:46;29.70;43.60
55121;DHT22;41019;48.512;9.036;2023-06-01T10:08:14;29.60;44.80
55121;DHT22;41019;48.512;9.036;2023-06-01T10:10:45;29.80;45.80
55121;DHT22;41019;48.512;9.036;2023-06-01T10:13:12;29.90;42.90
55121;DHT22;41019;48.512;9.036;2023-06-01T10:15:39;29.70;42.50
55121;DHT22;41019;48.512;9.036;2023-06-01T10:18:05;29.90;41.70
55121;DHT22;41019;48.512;9.036;2023-06-01T10:20:36;29.80;41.40
55121;DHT22;41019;48.512;9.036;2023-06-01T10:23:04;29.80;40.60
55121;DHT22;41019;48.512;9.036;2023-06-01T10:25:37;29.90;41.80
55121;DHT22;41019;48.512;9.036;2023-06-01T10:28:11;30.00;41.20
55121;DHT22;41019;48.512;9.036;2023-06-01T10:30:37;30.00;41.40
55121;DHT22;41019;48.512;9.036;2023-06-01T10:33:03;30.00;41.20
55121;DHT22;41019;48.512;9.036;2023-06-01T10:40:42;30.40;41.80
55121;DHT22;41019;48.512;9.036;2023-06-01T10:46:03;30.60;39.50
55121;DHT22;41019;48.512;9.036;2023-06-01T10:48:52;30.80;40.00
55121;DHT22;41019;48.512;9.036;2023-06-01T10:51:22;30.90;38.30
55121;DHT22;41019;48.512;9.036;2023-06-01T10:53:54;30.90;38.90
55121;DHT22;41019;48.512;9.036;2023-06-01T10:56:23;31.10;39.70
55121;DHT22;41019;48.512;9.036;2023-06-01T11:01:39;31.10;37.90
55121;DHT22;41019;48.512;9.036;2023-06-01T11:04:06;31.20;38.00
55121;DHT22;41019;48.512;9.036;2023-06-01T11:06:40;31.30;39.40
55121;DHT22;41019;48.512;9.036;2023-06-01T11:09:08;31.30;37.60
55121;DHT22;41019;48.512;9.036;2023-06-01T11:14:19;31.90;38.40
55121;DHT22;41019;48.512;9.036;2023-06-01T11:16:45;32.00;37.80
55121;DHT22;41019;48.512;9.036;2023-06-01T11:19:21;32.10;37.50
55121;DHT22;41019;48.512;9.036;2023-06-01T11:21:59;32.10;37.90
55121;DHT22;41019;48.512;9.036;2023-06-01T11:24:34;32.10;38.30
55121;DHT22;41019;48.512;9.036;2023-06-01T11:27:06;32.10;37.70
55121;DHT22;41019;48.512;9.036;2023-06-01T11:29:33;32.30;38.20
55121;DHT22;41019;48.512;9.036;2023-06-01T11:32:02;32.30;38.90
55121;DHT22;41019;48.512;9.036;2023-06-01T11:34:35;32.60;38.80
55121;DHT22;41019;48.512;9.036;2023-06-01T11:37:05;32.70;38.40
55121;DHT22;41019;48.512;9.036;2023-06-01T11:39:32;32.70;37.70
55121;DHT22;41019;48.512;9.036;2023-06-01T11:44:35;32.80;38.80
55121;DHT22;41019;48.512;9.036;2023-06-01T11:47:02;32.80;37.80
55121;DHT22;41019;48.512;9.036;2023-06-01T11:49:29;32.80;36.90
55121;DHT22;41019;48.512;9.036;2023-06-01T11:51:55;32.80;37.50
55121;DHT22;41019;48.512;9.036;2023-06-01T11:54:27;32.90;38.10
55121;DHT22;41019;48.512;9.036;2023-06-01T11:56:55;32.80;37.20
55121;DHT22;41019;48.512;9.036;2023-06-01T11:59:22;32.50;36.80
55121;DHT22;41019;48.512;9.036;2023-06-01T12:01:51;32.50;37.40
55121;DHT22;41019;48.512;9.036;2023-06-01T12:04:22;32.50;37.80
55121;DHT22;41019;48.512;9.036;2023-06-01T12:06:49;32.40;38.00
55121;DHT22;41019;48.512;9.036;2023-06-01T12:09:18;32.70;38.30
55121;DHT22;41019;48.512;9.036;2023-06-01T12:11:49;32.80;37.20
55121;DHT22;41019;48.512;9.036;2023-06-01T12:14:15;32.90;36.90
55121;DHT22;41019;48.512;9.036;2023-06-01T12:16:58;32.80;36.90
55121;DHT22;41019;48.512;9.036;2023-06-01T12:19:25;32.90;37.50
55121;DHT22;41019;48.512;9.036;2023-06-01T12:21:54;33.00;36.90
55121;DHT22;41019;48.512;9.036;2023-06-01T12:26:55;32.90;36.70
55121;DHT22;41019;48.512;9.036;2023-06-01T12:29:38;32.90;37.00
55121;DHT22;41019;48.512;9.036;2023-06-01T12:32:06;32.90;38.80
55121;DHT22;41019;48.512;9.036;2023-06-01T12:34:34;32.80;36.40
55121;DHT22;41019;48.512;9.036;2023-06-01T12:37:21;32.90;36.50
55121;DHT22;41019;48.512;9.036;2023-06-01T12:39:54;33.10;37.40
55121;DHT22;41019;48.512;9.036;2023-06-01T12:42:37;33.30;37.70
55121;DHT22;41019;48.512;9.036;2023-06-01T12:45:04;33.40;36.50
55121;DHT22;41019;48.512;9.036;2023-06-01T12:47:38;33.40;36.10
55121;DHT22;41019;48.512;9.036;2023-06-01T12:50:06;33.10;35.90
55121;DHT22;41019;48.512;9.036;2023-06-01T12:52:33;33.20;37.20
55121;DHT22;41019;48.512;9.036;2023-06-01T12:54:59;33.30;36.60
55121;DHT22;41019;48.512;9.036;2023-06-01T12:57:25;33.20;37.00
55121;DHT22;41019;48.512;9.036;2023-06-01T12:59:51;33.20;37.70
55121;DHT22;41019;48.512;9.036;2023-06-01T13:02:17;33.30;37.90
55121;DHT22;41019;48.512;9.036;2023-06-01T13:04:43;33.10;35.80
55121;DHT22;41019;48.512;9.036;2023-06-01T13:07:10;32.80;37.00
55121;DHT22;41019;48.512;9.036;2023-06-01T13:09:35;33.10;36.90
55121;DHT22;41019;48.512;9.036;2023-06-01T13:12:03;32.90;35.90
55121;DHT22;41019;48.512;9.036;2023-06-01T13:14:29;32.90;35.90
55121;DHT22;41019;48.512;9.036;2023-06-01T13:16:55;33.00;36.10
55121;DHT22;41019;48.512;9.036;2023-06-01T13:19:22;32.90;36.90
55121;DHT22;41019;48.512;9.036;2023-06-01T13:21:51;32.30;36.50
55121;DHT22;41019;48.512;9.036;2023-06-01T13:24:19;32.10;35.60
55121;DHT22;41019;48.512;9.036;2023-06-01T13:26:44;32.10;36.30
55121;DHT22;41019;48.512;9.036;2023-06-01T13:29:10;32.20;37.70
55121;DHT22;41019;48.512;9.036;2023-06-01T13:31:37;32.40;36.80
55121;DHT22;41019;48.512;9.036;2023-06-01T13:34:04;32.50;36.50
55121;DHT22;41019;48.512;9.036;2023-06-01T13:36:31;32.60;36.90
55121;DHT22;41019;48.512;9.036;2023-06-01T13:38:58;32.50;36.00
55121;DHT22;41019;48.512;9.036;2023-06-01T13:41:25;32.40;36.50
55121;DHT22;41019;48.512;9.036;2023-06-01T13:43:51;32.60;36.50
55121;DHT22;41019;48.512;9.036;2023-06-01T13:46:17;32.50;37.00
55121;DHT22;41019;48.512;9.036;2023-06-01T13:48:43;32.40;36.50
55121;DHT22;41019;48.512;9.036;2023-06-01T13:51:10;32.40;35.90
55121;DHT22;41019;48.512;9.036;2023-06-01T13:53:35;32.20;35.80
55121;DHT22;41019;48.512;9.036;2023-06-01T13:56:01;32.20;35.70
55121;DHT22;41019;48.512;9.036;2023-06-01T13:58:28;32.20;34.80
55121;DHT22;41019;48.512;9.036;2023-06-01T14:00:54;32.30;35.50
55121;DHT22;41019;48.512;9.036;2023-06-01T14:03:23;32.40;35.40
55121;DHT22;41019;48.512;9.036;2023-06-01T14:05:50;32.40;35.80
55121;DHT22;41019;48.512;9.036;2023-06-01T14:08:16;32.30;35.40
55121;DHT22;41019;48.512;9.036;2023-06-01T14:10:42;32.20;35.20
55121;DHT22;41019;48.512;9.036;2023-06-01T14:13:07;32.10;36.10
55121;DHT22;41019;48.512;9.036;2023-06-01T14:15:33;32.10;35.40
55121;DHT22;41019;48.512;9.036;2023-06-01T14:17:59;32.10;36.70
55121;DHT22;41019;48.512;9.036;2023-06-01T14:20:25;32.10;35.10
55121;DHT22;41019;48.512;9.036;2023-06-01T14:22:51;32.10;35.40
55121;DHT22;41019;48.512;9.036;2023-06-01T14:25:17;32.00;35.10
55121;DHT22;41019;48.512;9.036;2023-06-01T14:27:43;31.90;35.00
55121;DHT22;41019;48.512;9.036;2023-06-01T14:30:09;32.00;35.70
55121;DHT22;41019;48.512;9.036;2023-06-01T14:32:35;32.10;35.20
55121;DHT22;41019;48.512;9.036;2023-06-01T14:35:02;32.00;34.70
55121;DHT22;41019;48.512;9.036;2023-06-01T14:37:29;31.90;35.50
55121;DHT22;41019;48.512;9.036;2023-06-01T14:39:55;31.80;35.50
55121;DHT22;41019;48.512;9.036;2023-06-01T14:42:20;31.80;35.30
55121;DHT22;41019;48.512;9.036;2023-06-01T14:44:50;31.70;35.60
55121;DHT22;41019;48.512;9.036;2023-06-01T14:47:16;31.50;35.50
55121;DHT22;41019;48.512;9.036;2023-06-01T14:49:42;31.40;35.60
55121;DHT22;41019;48.512;9.036;2023-06-01T14:52:08;31.30;36.30
55121;DHT22;41019;48.512;9.036;2023-06-01T14:54:35;31.30;35.50
55121;DHT22;41019;48.512;9.036;2023-06-01T14:57:00;31.30;36.00
55121;DHT22;41019;48.512;9.036;2023-06-01T14:59:29;31.30;35.70
55121;DHT22;41019;48.512;9.036;2023-06-01T15:01:55;31.20;35.60
55121;DHT22;41019;48.512;9.036;2023-06-01T15:04:21;31.10;35.30
55121;DHT22;41019;48.512;9.036;2023-06-01T15:06:47;30.90;35.70
55121;DHT22;41019;48.512;9.036;2023-06-01T15:09:14;30.90;35.70
55121;DHT22;41019;48.512;9.036;2023-06-01T15:11:39;30.90;36.00
55121;DHT22;41019;48.512;9.036;2023-06-01T15:14:05;30.90;35.50
55121;DHT22;41019;48.512;9.036;2023-06-01T15:16:31;31.10;36.30
55121;DHT22;41019;48.512;9.036;2023-06-01T15:18:57;31.00;36.50
55121;DHT22;41019;48.512;9.036;2023-06-01T15:21:23;31.00;36.20
55121;DHT22;41019;48.512;9.036;2023-06-01T15:23:49;31.00;36.80
55121;DHT22;41019;48.512;9.036;2023-06-01T15:26:15;30.90;37.60
55121;DHT22;41019;48.512;9.036;2023-06-01T15:28:42;30.70;37.70
55121;DHT22;41019;48.512;9.036;2023-06-01T15:31:07;30.70;37.50
55121;DHT22;41019;48.512;9.036;2023-06-01T15:33:33;30.50;37.80
55121;DHT22;41019;48.512;9.036;2023-06-01T15:35:59;30.50;37.70
55121;DHT22;41019;48.512;9.036;2023-06-01T15:38:25;30.60;37.80
55121;DHT22;41019;48.512;9.036;2023-06-01T15:40:51;30.40;36.80
55121;DHT22;41019;48.512;9.036;2023-06-01T15:43:17;30.50;38.00
55121;DHT22;41019;48.512;9.036;2023-06-01T15:45:43;30.50;37.90
55121;DHT22;41019;48.512;9.036;2023-06-01T15:48:10;30.40;37.70
55121;DHT22;41019;48.512;9.036;2023-06-01T15:50:36;30.50;37.90
55121;DHT22;41019;48.512;9.036;2023-06-01T15:53:05;30.50;37.70
55121;DHT22;41019;48.512;9.036;2023-06-01T15:55:30;30.50;37.30
55121;DHT22;41019;48.512;9.036;2023-06-01T15:57:57;30.40;37.00
55121;DHT22;41019;48.512;9.036;2023-06-01T16:00:23;30.50;37.90
55121;DHT22;41019;48.512;9.036;2023-06-01T16:02:49;30.50;37.80
55121;DHT22;41019;48.512;9.036;2023-06-01T16:05:16;30.60;37.50